< Typhoon 196504 1965 Season Typhoon 196506 >
Typhoon 196505 (WANDA)
General InformationTrack Information on Google Maps || Disaster Info.ResourceGoogle EarthGE AnimationAtom FeedGeoJSON
Detalied Best Track (Time Zone = UTC)
Year Month Day Hour Lat. Long. Pressure (hPa) Wind (kt) Class Image Chart
1965 4 11 00 6.0 158.1 1009 0 2 -- Chart
1965 4 11 06 7.0 157.1 1007 0 2 -- Chart
1965 4 11 12 8.0 155.7 1006 0 2 -- Chart
1965 4 11 18 8.4 153.9 1004 0 2 -- Chart
1965 4 12 00 8.4 152.4 1004 0 2 -- Chart
1965 4 12 06 7.8 150.7 1002 0 9 -- Chart
1965 4 12 12 7.7 149.5 1002 0 9 -- Chart
1965 4 12 18 7.6 148.1 1002 0 9 -- Chart
1965 4 13 00 7.5 146.7 1004 0 9 -- Chart
1965 4 13 06 7.7 145.4 1002 0 9 -- Chart
1965 4 13 12 8.0 143.9 1002 0 9 -- Chart
1965 4 13 18 8.3 142.5 1000 0 9 -- Chart
1965 4 14 00 8.6 141.1 996 0 9 -- Chart
1965 4 14 06 9.0 139.3 1002 0 9 -- Chart
1965 4 14 12 9.7 137.1 1008 0 2 -- Chart
1965 4 14 18 10.0 134.6 1008 0 2 -- Chart
1965 4 15 00 10.3 132.0 1009 0 2 -- Chart
1965 4 15 06 11.0 130.0 1008 0 2 -- Chart
1965 4 15 12 11.1 128.9 1010 0 2 -- Chart
1965 4 15 18 11.3 128.1 1010 0 2 -- Chart
1965 4 16 00 11.5 127.7 1008 0 2 -- Chart
1965 4 16 06 11.2 127.2 1008 0 2 -- Chart
1965 4 16 12 10.7 126.2 1008 0 2 -- Chart
1965 4 16 18 10.0 125.0 1006 0 2 -- Chart
1965 4 17 00 9.0 124.0 1006 0 2 -- Chart
1965 4 17 06 9.0 123.0 1006 0 2 -- Chart
1965 4 17 12 9.0 122.0 1006 0 2 -- Chart
Japan Meteorological Agency Best Track Data | Correction Date : 1989-06-01
< Typhoon 196504 1965 Season Typhoon 196506 >

Help